createdAt,value
2018-01-15T00:01:32.150Z,84.98
2018-01-15T00:04:00.462Z,84.85
2018-01-15T00:06:29.563Z,84.96
2018-01-15T00:08:57.905Z,85.14
2018-01-15T00:11:26.226Z,85.79
2018-01-15T00:13:55.316Z,85.65
2018-01-15T00:16:23.646Z,85.64
2018-01-15T00:18:51.970Z,85.10
2018-01-15T00:21:21.078Z,85.04
2018-01-15T00:23:50.176Z,85.16
2018-01-15T00:26:18.521Z,85.06
2018-01-15T00:28:46.864Z,84.81
2018-01-15T00:31:15.207Z,85.42
2018-01-15T00:33:43.541Z,85.15
2018-01-15T00:36:11.887Z,85.42
2018-01-15T00:38:40.228Z,85.11
2018-01-15T00:41:09.330Z,84.86
2018-01-15T00:43:37.670Z,84.70
2018-01-15T00:46:05.985Z,84.51
2018-01-15T00:48:35.057Z,84.44
2018-01-15T00:51:03.384Z,84.33
2018-01-15T00:53:32.520Z,84.44
2018-01-15T00:56:00.878Z,84.49
2018-01-15T00:58:29.198Z,84.73
2018-01-15T01:00:57.553Z,84.93
2018-01-15T01:03:25.899Z,85.21
2018-01-15T01:05:54.224Z,85.06
2018-01-15T01:08:23.377Z,84.79
2018-01-15T01:10:51.689Z,84.90
2018-01-15T01:13:20.017Z,84.84
2018-01-15T01:15:48.350Z,85.07
2018-01-15T01:18:16.672Z,85.17
2018-01-15T01:20:45.020Z,87.24
2018-01-15T01:23:13.354Z,87.71
2018-01-15T01:25:41.695Z,87.92
2018-01-15T01:28:10.033Z,87.87
2018-01-15T01:30:38.379Z,87.33
2018-01-15T01:33:06.722Z,87.77
2018-01-15T01:35:35.850Z,88.18
2018-01-15T01:38:04.174Z,87.55
2018-01-15T01:40:32.532Z,87.32
2018-01-15T01:43:00.869Z,87.04
2018-01-15T01:45:29.201Z,86.85
2018-01-15T01:47:57.529Z,86.33
2018-01-15T01:50:25.858Z,86.23
2018-01-15T01:52:54.195Z,86.03
2018-01-15T01:55:22.539Z,86.20
2018-01-15T01:57:50.870Z,86.16
2018-01-15T02:00:19.210Z,86.17
2018-01-15T02:02:47.545Z,87.27
2018-01-15T02:05:15.883Z,87.27
2018-01-15T02:07:44.211Z,87.25
2018-01-15T02:10:12.535Z,87.60
2018-01-15T02:12:40.861Z,87.66
2018-01-15T02:15:09.973Z,87.46
2018-01-15T02:17:38.309Z,87.60
2018-01-15T02:20:06.688Z,88.21
2018-01-15T02:22:35.033Z,88.19
2018-01-15T02:25:03.372Z,88.16
2018-01-15T02:27:31.689Z,88.67
2018-01-15T02:30:00.027Z,88.74
2018-01-15T02:32:29.149Z,88.55
2018-01-15T02:34:57.489Z,88.61
2018-01-15T02:37:25.812Z,88.24
2018-01-15T02:39:55.372Z,87.63
2018-01-15T02:42:23.696Z,88.03
2018-01-15T02:44:52.036Z,87.69
2018-01-15T02:47:20.376Z,87.67
2018-01-15T02:49:48.715Z,87.17
2018-01-15T02:52:17.047Z,86.33
2018-01-15T02:54:45.370Z,86.68
2018-01-15T02:57:13.700Z,86.96
2018-01-15T02:59:42.026Z,86.90
2018-01-15T03:02:10.373Z,86.86
2018-01-15T03:04:38.690Z,86.95
2018-01-15T03:07:07.033Z,86.93
2018-01-15T03:09:36.521Z,87.25
2018-01-15T03:12:04.858Z,87.48
2018-01-15T03:14:33.182Z,87.79
2018-01-15T03:17:01.506Z,87.99
2018-01-15T03:19:29.831Z,88.54
2018-01-15T03:21:58.150Z,88.59
2018-01-15T03:24:26.480Z,88.62
2018-01-15T03:26:54.879Z,89.08
2018-01-15T03:29:23.981Z,88.95
2018-01-15T03:31:52.311Z,88.76
2018-01-15T03:34:20.634Z,88.50
2018-01-15T03:36:49.726Z,88.42
2018-01-15T03:39:18.910Z,88.58
2018-01-15T03:41:47.424Z,87.99
2018-01-15T03:44:15.742Z,87.78
2018-01-15T03:46:44.062Z,87.31
2018-01-15T03:49:13.151Z,86.78
2018-01-15T03:51:42.255Z,87.47
2018-01-15T03:54:10.580Z,87.24
2018-01-15T03:56:38.906Z,87.61
2018-01-15T03:59:07.999Z,88.72
2018-01-15T04:01:36.345Z,89.56
2018-01-15T04:04:04.678Z,89.56
2018-01-15T04:06:33.006Z,89.00
2018-01-15T04:09:02.284Z,88.57
2018-01-15T04:11:30.627Z,89.30
2018-01-15T04:13:59.718Z,88.94
2018-01-15T04:16:28.042Z,90.11
2018-01-15T04:18:57.168Z,89.82
2018-01-15T04:21:25.497Z,89.65
2018-01-15T04:23:53.826Z,89.21
2018-01-15T04:26:22.170Z,89.13
2018-01-15T04:28:50.529Z,89.34
2018-01-15T04:31:18.862Z,89.06
2018-01-15T04:33:47.972Z,88.89
2018-01-15T04:36:16.308Z,89.55
2018-01-15T04:38:44.746Z,89.71
2018-01-15T04:41:13.169Z,88.87
2018-01-15T04:43:41.512Z,89.97
2018-01-15T04:46:09.834Z,90.32
2018-01-15T04:48:38.162Z,91.04
2018-01-15T04:51:06.493Z,90.63
2018-01-15T04:53:34.822Z,90.11
2018-01-15T04:56:03.150Z,90.39
2018-01-15T04:58:31.474Z,90.44
2018-01-15T05:00:59.794Z,90.32
2018-01-15T05:03:29.651Z,90.36
2018-01-15T05:05:57.974Z,90.19
2018-01-15T05:08:26.290Z,90.39
2018-01-15T05:10:55.392Z,90.65
2018-01-15T05:13:24.492Z,90.12
2018-01-15T05:15:52.830Z,90.29
2018-01-15T05:18:21.208Z,90.73
2018-01-15T05:20:49.555Z,90.35
2018-01-15T05:23:17.877Z,90.21
2018-01-15T05:25:46.206Z,90.59
2018-01-15T05:28:14.538Z,90.14
2018-01-15T05:30:42.889Z,89.94
2018-01-15T05:33:11.221Z,90.00
2018-01-15T05:35:39.549Z,89.52
2018-01-15T05:38:07.887Z,89.94
2018-01-15T05:40:36.223Z,89.72
2018-01-15T05:43:05.306Z,89.48
2018-01-15T05:45:33.629Z,89.45
2018-01-15T05:48:01.964Z,89.16
2018-01-15T05:50:30.320Z,89.38
2018-01-15T05:52:58.664Z,90.04
2018-01-15T05:55:26.996Z,90.17
2018-01-15T05:57:55.326Z,90.26
2018-01-15T06:00:23.679Z,91.15
2018-01-15T06:02:52.048Z,91.88
2018-01-15T06:05:20.356Z,92.05
2018-01-15T06:07:48.677Z,91.46
2018-01-15T06:10:17.010Z,91.45
2018-01-15T06:12:45.336Z,90.71
2018-01-15T06:15:13.674Z,90.28
2018-01-15T06:17:41.998Z,90.15
2018-01-15T06:20:10.337Z,90.24
2018-01-15T06:22:38.668Z,90.60
2018-01-15T06:25:07.776Z,91.21
2018-01-15T06:27:36.098Z,90.82
2018-01-15T06:30:04.458Z,90.89
2018-01-15T06:32:32.787Z,91.30
2018-01-15T06:35:03.135Z,91.06
2018-01-15T06:37:31.454Z,90.80
2018-01-15T06:39:59.788Z,90.56
2018-01-15T06:42:28.106Z,90.76
2018-01-15T06:44:56.426Z,91.60
2018-01-15T06:47:24.777Z,92.40
2018-01-15T06:49:53.118Z,92.57
2018-01-15T06:52:21.453Z,91.53
2018-01-15T06:54:49.800Z,91.79
2018-01-15T06:57:18.134Z,90.96
2018-01-15T06:59:46.464Z,90.60
2018-01-15T07:02:15.059Z,90.89
2018-01-15T07:04:43.400Z,91.22
2018-01-15T07:07:11.705Z,91.59
2018-01-15T07:09:40.038Z,91.03
2018-01-15T07:12:08.370Z,90.99
2018-01-15T07:14:36.706Z,90.43
2018-01-15T07:17:05.039Z,90.41
2018-01-15T07:19:33.366Z,90.99
2018-01-15T07:22:01.690Z,90.84
2018-01-15T07:24:30.774Z,90.53
2018-01-15T07:26:59.085Z,90.00
2018-01-15T07:29:27.404Z,89.51
2018-01-15T07:31:55.747Z,89.61
2018-01-15T07:34:24.084Z,89.80
2018-01-15T07:36:52.424Z,89.40
2018-01-15T07:39:20.747Z,89.31
2018-01-15T07:41:49.123Z,89.49
2018-01-15T07:44:17.451Z,89.33
2018-01-15T07:46:45.793Z,89.29
2018-01-15T07:49:14.119Z,89.61
2018-01-15T07:51:42.444Z,89.51
2018-01-15T07:54:11.510Z,90.02
2018-01-15T07:56:39.853Z,90.37
2018-01-15T07:59:08.192Z,90.57
2018-01-15T08:01:37.290Z,90.26
2018-01-15T08:04:05.712Z,90.64
2018-01-15T08:06:34.042Z,91.08
2018-01-15T08:09:02.380Z,90.89
2018-01-15T08:11:30.710Z,90.39
2018-01-15T08:13:59.846Z,90.07
2018-01-15T08:16:28.189Z,90.07
2018-01-15T08:18:56.514Z,90.16
2018-01-15T08:21:24.855Z,89.93
2018-01-15T08:23:54.107Z,90.12
2018-01-15T08:26:22.434Z,90.79
2018-01-15T08:28:50.770Z,90.72
2018-01-15T08:31:19.105Z,92.00
2018-01-15T08:33:47.435Z,91.82
2018-01-15T08:36:16.530Z,91.83
2018-01-15T08:38:44.854Z,92.48
2018-01-15T08:41:13.173Z,91.91
2018-01-15T08:43:41.882Z,91.34
2018-01-15T08:46:10.207Z,91.59
2018-01-15T08:48:38.529Z,91.83
2018-01-15T08:51:07.655Z,91.89
2018-01-15T08:53:35.971Z,91.58
2018-01-15T08:56:04.316Z,91.40
2018-01-15T08:58:32.705Z,91.09
2018-01-15T09:01:01.038Z,91.82
2018-01-15T09:03:30.300Z,91.70
2018-01-15T09:05:58.646Z,91.96
2018-01-15T09:08:26.962Z,91.69
2018-01-15T09:10:55.291Z,92.17
2018-01-15T09:13:23.624Z,92.36
2018-01-15T09:15:51.975Z,92.42
2018-01-15T09:18:20.298Z,92.37
2018-01-15T09:20:49.437Z,91.81
2018-01-15T09:23:17.777Z,92.47
2018-01-15T09:25:46.093Z,92.04
2018-01-15T09:28:14.405Z,92.13
2018-01-15T09:30:42.743Z,92.06
2018-01-15T09:33:11.769Z,91.21
2018-01-15T09:35:41.649Z,91.02
2018-01-15T09:38:09.996Z,90.43
2018-01-15T09:40:38.331Z,90.74
2018-01-15T09:43:06.681Z,90.80
2018-01-15T09:45:35.023Z,90.73
2018-01-15T09:48:03.366Z,89.91
2018-01-15T09:50:31.712Z,90.00
2018-01-15T09:53:00.053Z,90.30
2018-01-15T09:55:29.238Z,90.20
2018-01-15T09:57:57.558Z,89.99
2018-01-15T10:00:25.940Z,90.11
2018-01-15T10:02:54.292Z,89.82
2018-01-15T10:05:22.621Z,90.58
2018-01-15T10:07:50.940Z,90.18
2018-01-15T10:10:20.038Z,89.95
2018-01-15T10:12:48.659Z,90.13
2018-01-15T10:15:17.000Z,89.98
2018-01-15T10:17:46.102Z,89.63
2018-01-15T10:20:14.454Z,89.39
2018-01-15T10:22:42.776Z,89.41
2018-01-15T10:25:12.464Z,89.25
2018-01-15T10:27:40.806Z,88.95
2018-01-15T10:30:09.143Z,88.62
2018-01-15T10:32:37.450Z,88.71
2018-01-15T10:35:05.766Z,88.53
2018-01-15T10:37:34.104Z,88.39
2018-01-15T10:40:02.430Z,88.19
2018-01-15T10:42:31.575Z,88.56
2018-01-15T10:44:59.921Z,88.06
2018-01-15T10:47:28.305Z,87.42
2018-01-15T10:49:56.643Z,87.89
2018-01-15T10:52:24.991Z,88.41
2018-01-15T10:54:53.547Z,88.70
2018-01-15T10:57:22.732Z,88.53
2018-01-15T10:59:51.077Z,88.17
2018-01-15T11:02:19.395Z,87.89
2018-01-15T11:04:47.727Z,88.21
2018-01-15T11:07:16.054Z,88.33
2018-01-15T11:09:44.382Z,89.64
2018-01-15T11:12:12.702Z,89.24
2018-01-15T11:14:41.086Z,89.43
2018-01-15T11:17:09.545Z,88.92
2018-01-15T11:22:06.087Z,88.40
2018-01-15T11:24:34.424Z,88.24
2018-01-15T11:27:02.763Z,88.36
2018-01-15T11:29:31.114Z,88.46
2018-01-15T11:32:00.219Z,89.16
2018-01-15T11:34:29.169Z,90.11
2018-01-15T11:36:57.508Z,89.82
2018-01-15T11:39:26.575Z,90.19
2018-01-15T11:41:54.914Z,91.23
2018-01-15T11:44:23.246Z,91.21
2018-01-15T11:46:51.592Z,91.12
2018-01-15T11:49:19.940Z,90.61
2018-01-15T11:51:48.276Z,91.04
2018-01-15T11:54:16.629Z,91.60
2018-01-15T11:56:45.206Z,91.39
2018-01-15T11:59:13.530Z,91.34
2018-01-15T12:01:41.868Z,91.76
2018-01-15T12:04:10.966Z,91.29
2018-01-15T12:06:40.068Z,91.89
2018-01-15T12:09:08.399Z,91.12
2018-01-15T12:11:36.755Z,91.68
2018-01-15T12:14:05.090Z,90.96
2018-01-15T12:16:33.425Z,91.34
2018-01-15T12:19:01.756Z,91.04
2018-01-15T12:21:30.090Z,91.01
2018-01-15T12:23:58.406Z,90.36
2018-01-15T12:26:26.746Z,91.31
2018-01-15T12:28:55.105Z,90.64
2018-01-15T12:31:23.416Z,90.56
2018-01-15T12:33:51.751Z,90.60
2018-01-15T12:36:20.116Z,90.91
2018-01-15T12:38:48.462Z,90.67
2018-01-15T12:41:16.800Z,90.69
2018-01-15T12:43:45.152Z,90.68
2018-01-15T12:46:13.490Z,90.30
2018-01-15T12:48:41.836Z,89.91
2018-01-15T12:51:10.990Z,90.49
2018-01-15T12:53:40.854Z,90.16
2018-01-15T12:56:09.201Z,90.30
2018-01-15T12:58:37.536Z,90.35
2018-01-15T13:01:05.985Z,90.12
2018-01-15T13:03:41.209Z,89.80
2018-01-15T13:06:11.043Z,90.01
2018-01-15T13:11:42.830Z,90.56
2018-01-15T13:14:11.179Z,90.46
2018-01-15T13:16:41.804Z,90.25
2018-01-15T13:19:10.127Z,90.03
2018-01-15T13:21:38.457Z,90.36
2018-01-15T13:24:06.795Z,90.01
2018-01-15T13:26:35.182Z,90.26
2018-01-15T13:29:03.515Z,90.22
2018-01-15T13:31:31.877Z,90.98
2018-01-15T13:34:01.146Z,90.89
2018-01-15T13:36:29.488Z,91.54
2018-01-15T13:38:57.830Z,92.29
2018-01-15T13:41:26.186Z,91.73
2018-01-15T13:43:54.524Z,91.85
2018-01-15T13:46:22.880Z,91.70
2018-01-15T13:48:51.239Z,91.99
2018-01-15T13:51:19.579Z,91.45
2018-01-15T13:53:47.914Z,91.51
2018-01-15T13:56:16.234Z,91.65
2018-01-15T13:58:44.572Z,91.69
2018-01-15T14:01:12.950Z,92.16
2018-01-15T14:03:41.284Z,92.17
2018-01-15T14:06:09.606Z,91.62
2018-01-15T14:08:37.956Z,91.64
2018-01-15T14:11:06.298Z,91.71
2018-01-15T14:13:34.639Z,91.76
2018-01-15T14:16:02.973Z,91.34
2018-01-15T14:18:31.299Z,91.29
2018-01-15T14:21:00.160Z,91.33
2018-01-15T14:23:28.474Z,91.17
2018-01-15T14:25:56.816Z,91.42
2018-01-15T14:28:26.050Z,90.75
2018-01-15T14:30:54.379Z,90.10
2018-01-15T14:33:22.729Z,89.05
2018-01-15T14:35:51.088Z,90.22
2018-01-15T14:38:19.467Z,89.81
2018-01-15T14:40:47.834Z,90.04
2018-01-15T14:43:16.154Z,89.93
2018-01-15T14:45:45.408Z,90.12
2018-01-15T14:48:13.753Z,90.30
2018-01-15T14:50:42.096Z,90.54
2018-01-15T14:53:10.436Z,90.43
2018-01-15T14:55:38.780Z,90.52
2018-01-15T14:58:07.993Z,90.05
2018-01-15T15:00:36.324Z,90.21
2018-01-15T15:03:04.669Z,90.30
2018-01-15T15:05:32.990Z,90.10
2018-01-15T15:08:01.344Z,89.73
2018-01-15T15:10:30.363Z,89.89
2018-01-15T15:12:59.259Z,90.28
2018-01-15T15:15:27.612Z,90.17
2018-01-15T15:17:56.720Z,90.50
2018-01-15T15:20:25.078Z,90.77
2018-01-15T15:22:53.403Z,90.83
2018-01-15T15:25:21.735Z,91.17
2018-01-15T15:27:50.081Z,91.05
2018-01-15T15:30:18.420Z,91.19
2018-01-15T15:32:46.761Z,91.08
2018-01-15T15:35:15.091Z,91.18
2018-01-15T15:37:43.475Z,92.05
2018-01-15T15:40:11.810Z,92.27
2018-01-15T15:42:40.155Z,92.74
2018-01-15T15:45:08.498Z,93.56
2018-01-15T15:47:36.814Z,93.48
2018-01-15T15:50:05.134Z,93.69
2018-01-15T15:52:33.484Z,93.88
2018-01-15T15:55:01.821Z,94.11
2018-01-15T15:57:30.141Z,94.65
2018-01-15T15:59:58.472Z,95.74
2018-01-15T16:02:26.816Z,96.10
2018-01-15T16:04:55.926Z,96.08
2018-01-15T16:07:24.269Z,95.82
2018-01-15T16:09:52.602Z,95.90
2018-01-15T16:12:20.938Z,96.22
2018-01-15T16:14:50.030Z,96.22
2018-01-15T16:17:18.386Z,96.32
2018-01-15T16:19:46.722Z,96.25
2018-01-15T16:22:34.670Z,96.13
2018-01-15T16:25:03.034Z,96.51
2018-01-15T16:27:31.370Z,96.72
2018-01-15T16:29:59.693Z,96.95
2018-01-15T16:32:28.071Z,97.23
2018-01-15T16:34:56.427Z,97.19
2018-01-15T16:37:24.789Z,97.30
2018-01-15T16:39:53.147Z,96.72
2018-01-15T16:42:21.492Z,97.13
2018-01-15T16:44:49.832Z,96.95
2018-01-15T16:47:18.958Z,97.12
2018-01-15T16:49:47.300Z,96.93
2018-01-15T16:52:15.638Z,97.65
2018-01-15T16:54:43.967Z,98.25
2018-01-15T16:57:12.335Z,98.27
2018-01-15T16:59:41.450Z,97.82
2018-01-15T17:02:09.845Z,98.05
2018-01-15T17:04:38.186Z,97.83
2018-01-15T17:07:06.535Z,98.18
2018-01-15T17:09:34.880Z,98.62
2018-01-15T17:12:03.218Z,98.23
2018-01-15T17:14:32.311Z,98.23
2018-01-15T17:17:00.672Z,98.43
2018-01-15T17:19:29.010Z,98.89
2018-01-15T17:21:57.325Z,99.06
2018-01-15T17:24:25.657Z,98.61
2018-01-15T17:26:53.991Z,98.64
2018-01-15T17:29:22.379Z,98.87
2018-01-15T17:31:50.762Z,98.82
2018-01-15T17:34:19.110Z,98.69
2018-01-15T17:36:47.447Z,98.90
2018-01-15T17:39:15.775Z,99.24
2018-01-15T17:41:44.185Z,99.05
2018-01-15T17:44:12.562Z,99.17
2018-01-15T17:46:41.375Z,99.11
2018-01-15T17:49:09.992Z,99.21
2018-01-15T17:51:39.741Z,99.62
2018-01-15T17:54:09.224Z,99.26
2018-01-15T17:56:39.367Z,98.70
2018-01-15T17:59:08.433Z,99.00
2018-01-15T18:01:38.220Z,99.29
2018-01-15T18:04:07.780Z,98.66
2018-01-15T18:06:37.220Z,98.94
2018-01-15T18:09:07.091Z,98.59
2018-01-15T18:11:36.663Z,98.41
2018-01-15T18:14:06.471Z,98.80
2018-01-15T18:16:36.348Z,98.89
2018-01-15T18:19:06.952Z,99.82
2018-01-15T18:21:36.468Z,100.00
2018-01-15T18:24:06.066Z,100.00
2018-01-15T18:26:35.887Z,100.00
2018-01-15T18:29:05.377Z,100.00
2018-01-15T18:31:35.200Z,100.00
2018-01-15T18:34:05.738Z,100.00
2018-01-15T18:36:36.277Z,100.00
2018-01-15T18:39:06.989Z,99.85
2018-01-15T18:41:37.395Z,100.00
2018-01-15T18:44:07.223Z,100.00
2018-01-15T18:46:37.002Z,100.00
2018-01-15T18:49:06.793Z,100.00
2018-01-15T18:51:37.015Z,100.00
2018-01-15T18:54:07.543Z,100.00
2018-01-15T18:56:37.607Z,100.00
2018-01-15T18:59:07.440Z,100.00
2018-01-15T19:01:37.386Z,100.00
2018-01-15T19:04:07.217Z,100.00
2018-01-15T19:06:37.056Z,99.77
2018-01-15T19:09:07.048Z,100.00
2018-01-15T19:11:36.967Z,100.00
2018-01-15T19:14:06.918Z,100.00
2018-01-15T19:16:36.842Z,100.00
2018-01-15T19:19:06.757Z,100.00
2018-01-15T19:21:36.637Z,100.00
2018-01-15T19:24:07.401Z,100.00
2018-01-15T19:26:38.254Z,100.00
2018-01-15T19:29:08.385Z,100.00
2018-01-15T19:31:38.445Z,100.00
2018-01-15T19:34:08.524Z,100.00
2018-01-15T19:36:40.103Z,100.00
2018-01-15T19:39:10.673Z,100.00
2018-01-15T19:41:40.790Z,100.00
2018-01-15T19:47:23.538Z,100.00
2018-01-15T19:49:59.616Z,100.00
2018-01-15T19:52:34.965Z,100.00
2018-01-15T19:55:10.166Z,100.00
2018-01-15T19:57:45.527Z,100.00
2018-01-15T20:00:20.779Z,100.00
2018-01-15T20:02:56.054Z,100.00
2018-01-15T20:05:31.417Z,100.00
2018-01-15T20:08:06.700Z,100.00
2018-01-15T20:10:42.117Z,100.00
2018-01-15T20:13:12.144Z,100.00
2018-01-15T20:15:43.617Z,100.00
2018-01-15T20:18:13.564Z,100.00
2018-01-15T20:20:43.383Z,100.00
2018-01-15T20:23:13.415Z,100.00
2018-01-15T20:25:43.297Z,100.00
2018-01-15T20:28:13.345Z,100.00
2018-01-15T20:30:43.289Z,100.00
2018-01-15T20:33:13.242Z,100.00
2018-01-15T20:35:43.040Z,100.00
2018-01-15T20:38:13.038Z,100.00
2018-01-15T20:40:43.103Z,100.00
2018-01-15T20:43:13.674Z,100.00
2018-01-15T20:45:44.325Z,100.00
2018-01-15T20:48:14.302Z,100.00
2018-01-15T20:50:44.703Z,100.00
2018-01-15T20:53:14.556Z,100.00
2018-01-15T20:55:45.949Z,100.00
2018-01-15T20:58:15.849Z,100.00
2018-01-15T21:00:45.727Z,100.00
2018-01-15T21:03:15.725Z,100.00
2018-01-15T21:05:46.325Z,100.00
2018-01-15T21:08:17.180Z,100.00
2018-01-15T21:10:47.231Z,100.00
2018-01-15T21:13:21.000Z,100.00
2018-01-15T21:15:50.856Z,100.00
2018-01-15T21:18:21.596Z,100.00
2018-01-15T21:20:51.470Z,100.00
2018-01-15T21:23:21.436Z,100.00
2018-01-15T21:25:51.346Z,100.00
2018-01-15T21:28:21.214Z,100.00
2018-01-15T21:30:51.083Z,100.00
2018-01-15T21:33:22.413Z,100.00
2018-01-15T21:35:53.032Z,100.00
2018-01-15T21:38:23.130Z,100.00
2018-01-15T21:40:53.045Z,100.00
2018-01-15T21:43:22.923Z,100.00
2018-01-15T21:45:52.803Z,100.00
2018-01-15T21:48:22.781Z,100.00
2018-01-15T21:50:52.629Z,100.00
2018-01-15T21:53:23.758Z,100.00
2018-01-15T21:55:54.651Z,100.00
2018-01-15T21:58:24.510Z,100.00
2018-01-15T22:00:54.211Z,100.00
2018-01-15T22:03:24.026Z,100.00
2018-01-15T22:05:53.852Z,100.00
2018-01-15T22:08:23.732Z,100.00
2018-01-15T22:10:53.870Z,100.00
2018-01-15T22:13:23.692Z,100.00
2018-01-15T22:15:55.433Z,100.00
2018-01-15T22:18:25.290Z,100.00
2018-01-15T22:20:54.853Z,100.00
2018-01-15T22:23:25.453Z,100.00
2018-01-15T22:25:54.757Z,100.00
2018-01-15T22:28:23.441Z,100.00
2018-01-15T22:30:53.816Z,100.00
2018-01-15T22:33:22.274Z,100.00
2018-01-15T22:35:51.419Z,100.00
2018-01-15T22:38:19.756Z,100.00
2018-01-15T22:40:48.101Z,100.00
2018-01-15T22:43:16.451Z,100.00
2018-01-15T22:45:44.775Z,100.00
2018-01-15T22:48:13.122Z,100.00
2018-01-15T22:50:41.454Z,100.00
2018-01-15T22:53:09.778Z,100.00
2018-01-15T22:55:38.103Z,100.00
2018-01-15T22:58:06.425Z,100.00
2018-01-15T23:00:34.752Z,100.00
2018-01-15T23:03:03.857Z,100.00
2018-01-15T23:05:32.177Z,100.00
2018-01-15T23:08:00.518Z,100.00
2018-01-15T23:10:28.883Z,100.00
2018-01-15T23:12:57.241Z,100.00
2018-01-15T23:15:25.604Z,100.00
2018-01-15T23:17:54.061Z,100.00
2018-01-15T23:20:22.394Z,100.00
2018-01-15T23:22:51.498Z,100.00
2018-01-15T23:25:19.849Z,100.00
2018-01-15T23:27:48.191Z,100.00
2018-01-15T23:30:16.528Z,100.00
2018-01-15T23:32:45.630Z,100.00
2018-01-15T23:35:13.977Z,100.00
2018-01-15T23:37:42.328Z,100.00
2018-01-15T23:40:10.663Z,100.00
2018-01-15T23:42:39.764Z,100.00
2018-01-15T23:45:08.101Z,100.00
2018-01-15T23:47:36.451Z,100.00
2018-01-15T23:50:05.227Z,100.00
2018-01-15T23:52:33.573Z,100.00
2018-01-15T23:55:02.676Z,100.00
2018-01-15T23:57:31.785Z,100.00
